sensor_id;sensor_type;location;lat;lon;timestamp;pressure;altitude;pressure_sealevel;temperature;humidity
14120;BME280;7138;49.246;9.100;2023-04-27T00:00:21;98838.59;;;9.14;69.73
14120;BME280;7138;49.246;9.100;2023-04-27T00:02:49;98831.69;;;9.13;69.25
14120;BME280;7138;49.246;9.100;2023-04-27T00:05:15;98831.69;;;9.13;69.42
14120;BME280;7138;49.246;9.100;2023-04-27T00:07:41;98837.72;;;9.14;69.46
14120;BME280;7138;49.246;9.100;2023-04-27T00:10:08;98831.69;;;9.12;69.51
14120;BME280;7138;49.246;9.100;2023-04-27T00:12:34;98832.53;;;9.11;69.65
14120;BME280;7138;49.246;9.100;2023-04-27T00:15:00;98828.22;;;9.08;69.06
14120;BME280;7138;49.246;9.100;2023-04-27T00:17:26;98825.63;;;9.05;69.11
14120;BME280;7138;49.246;9.100;2023-04-27T00:19:53;98824.72;;;9.02;69.39
14120;BME280;7138;49.246;9.100;2023-04-27T00:22:19;98827.28;;;8.99;69.28
14120;BME280;7138;49.246;9.100;2023-04-27T00:24:45;98822.94;;;8.95;69.60
14120;BME280;7138;49.246;9.100;2023-04-27T00:27:11;98817.78;;;8.93;69.14
14120;BME280;7138;49.246;9.100;2023-04-27T00:29:38;98826.38;;;8.94;68.80
14120;BME280;7138;49.246;9.100;2023-04-27T00:32:07;98818.63;;;8.92;68.92
14120;BME280;7138;49.246;9.100;2023-04-27T00:34:33;98816.94;;;8.93;68.44
14120;BME280;7138;49.246;9.100;2023-04-27T00:37:00;98819.47;;;8.91;68.27
14120;BME280;7138;49.246;9.100;2023-04-27T00:39:30;98812.63;;;8.90;68.73
14120;BME280;7138;49.246;9.100;2023-04-27T00:41:56;98810.84;;;8.88;69.52
14120;BME280;7138;49.246;9.100;2023-04-27T00:44:22;98803.94;;;8.82;68.89
14120;BME280;7138;49.246;9.100;2023-04-27T00:46:49;98812.56;;;8.86;68.75
14120;BME280;7138;49.246;9.100;2023-04-27T00:49:15;98809.13;;;8.84;68.76
14120;BME280;7138;49.246;9.100;2023-04-27T00:51:41;98810.84;;;8.83;69.29
14120;BME280;7138;49.246;9.100;2023-04-27T00:54:09;98807.38;;;8.81;69.05
14120;BME280;7138;49.246;9.100;2023-04-27T00:56:36;98807.38;;;8.79;68.86
14120;BME280;7138;49.246;9.100;2023-04-27T00:59:02;98806.50;;;8.77;68.73
14120;BME280;7138;49.246;9.100;2023-04-27T01:01:29;98809.06;;;8.74;68.50
14120;BME280;7138;49.246;9.100;2023-04-27T01:03:55;98807.31;;;8.72;68.40
14120;BME280;7138;49.246;9.100;2023-04-27T01:06:21;98805.56;;;8.69;68.62
14120;BME280;7138;49.246;9.100;2023-04-27T01:08:46;98810.72;;;8.69;68.73
14120;BME280;7138;49.246;9.100;2023-04-27T01:11:13;98819.28;;;8.67;69.20
14120;BME280;7138;49.246;9.100;2023-04-27T01:13:40;98819.19;;;8.58;69.44
14120;BME280;7138;49.246;9.100;2023-04-27T01:16:07;98815.69;;;8.50;69.36
14120;BME280;7138;49.246;9.100;2023-04-27T01:18:33;98816.50;;;8.44;69.68
14120;BME280;7138;49.246;9.100;2023-04-27T01:20:59;98813.91;;;8.43;69.51
14120;BME280;7138;49.246;9.100;2023-04-27T01:23:27;98818.16;;;8.39;68.95
14120;BME280;7138;49.246;9.100;2023-04-27T01:25:53;98821.53;;;8.34;69.33
14120;BME280;7138;49.246;9.100;2023-04-27T01:28:19;98824.97;;;8.31;69.07
14120;BME280;7138;49.246;9.100;2023-04-27T01:30:44;98829.25;;;8.29;69.68
14120;BME280;7138;49.246;9.100;2023-04-27T01:33:10;98825.69;;;8.24;69.92
14120;BME280;7138;49.246;9.100;2023-04-27T01:35:37;98821.38;;;8.20;69.27
14120;BME280;7138;49.246;9.100;2023-04-27T01:38:02;98826.50;;;8.17;70.02
14120;BME280;7138;49.246;9.100;2023-04-27T01:40:30;98827.34;;;8.14;70.05
14120;BME280;7138;49.246;9.100;2023-04-27T01:42:55;98823.84;;;8.12;69.80
14120;BME280;7138;49.246;9.100;2023-04-27T01:45:21;98818.72;;;8.12;68.76
14120;BME280;7138;49.246;9.100;2023-04-27T01:47:50;98821.28;;;8.11;68.91
14120;BME280;7138;49.246;9.100;2023-04-27T01:50:16;98824.66;;;8.07;69.05
14120;BME280;7138;49.246;9.100;2023-04-27T01:52:42;98827.16;;;8.01;69.45
14120;BME280;7138;49.246;9.100;2023-04-27T01:55:08;98833.09;;;7.94;69.71
14120;BME280;7138;49.246;9.100;2023-04-27T01:57:35;98832.13;;;7.86;70.26
14120;BME280;7138;49.246;9.100;2023-04-27T02:00:01;98834.59;;;7.77;70.37
14120;BME280;7138;49.246;9.100;2023-04-27T02:02:27;98837.97;;;7.72;70.13
14120;BME280;7138;49.246;9.100;2023-04-27T02:04:53;98837.06;;;7.69;70.15
14120;BME280;7138;49.246;9.100;2023-04-27T02:07:19;98829.25;;;7.61;70.64
14120;BME280;7138;49.246;9.100;2023-04-27T02:09:45;98830.94;;;7.58;71.21
14120;BME280;7138;49.246;9.100;2023-04-27T02:12:11;98839.44;;;7.52;72.47
14120;BME280;7138;49.246;9.100;2023-04-27T02:14:38;98831.69;;;7.51;72.09
14120;BME280;7138;49.246;9.100;2023-04-27T02:17:04;98828.19;;;7.46;72.99
14120;BME280;7138;49.246;9.100;2023-04-27T02:19:30;98828.06;;;7.37;73.02
14120;BME280;7138;49.246;9.100;2023-04-27T02:21:55;98828.88;;;7.34;74.02
14120;BME280;7138;49.246;9.100;2023-04-27T02:24:21;98837.44;;;7.32;74.53
14120;BME280;7138;49.246;9.100;2023-04-27T02:26:47;98833.91;;;7.25;74.91
14120;BME280;7138;49.246;9.100;2023-04-27T02:29:13;98833.06;;;7.26;73.70
14120;BME280;7138;49.246;9.100;2023-04-27T02:31:40;98834.72;;;7.23;74.13
14120;BME280;7138;49.246;9.100;2023-04-27T02:34:06;98830.47;;;7.23;73.50
14120;BME280;7138;49.246;9.100;2023-04-27T02:36:32;98837.25;;;7.21;74.65
14120;BME280;7138;49.246;9.100;2023-04-27T02:38:58;98836.44;;;7.22;74.97
14120;BME280;7138;49.246;9.100;2023-04-27T02:41:24;98837.31;;;7.24;75.83
14120;BME280;7138;49.246;9.100;2023-04-27T02:43:53;98838.19;;;7.25;76.53
14120;BME280;7138;49.246;9.100;2023-04-27T02:46:18;98845.94;;;7.26;76.95
14120;BME280;7138;49.246;9.100;2023-04-27T02:48:45;98845.16;;;7.32;77.57
14120;BME280;7138;49.246;9.100;2023-04-27T02:51:11;98840.91;;;7.37;76.81
14120;BME280;7138;49.246;9.100;2023-04-27T02:53:37;98841.84;;;7.40;76.94
14120;BME280;7138;49.246;9.100;2023-04-27T02:56:04;98845.31;;;7.44;76.29
14120;BME280;7138;49.246;9.100;2023-04-27T02:58:30;98855.59;;;7.44;76.72
14120;BME280;7138;49.246;9.100;2023-04-27T03:00:56;98857.34;;;7.46;76.49
14120;BME280;7138;49.246;9.100;2023-04-27T03:03:22;98851.38;;;7.47;75.50
14120;BME280;7138;49.246;9.100;2023-04-27T03:05:49;98851.44;;;7.52;75.86
14120;BME280;7138;49.246;9.100;2023-04-27T03:08:15;98849.75;;;7.55;75.94
14120;BME280;7138;49.246;9.100;2023-04-27T03:10:41;98849.81;;;7.60;75.55
14120;BME280;7138;49.246;9.100;2023-04-27T03:13:07;98853.28;;;7.63;76.12
14120;BME280;7138;49.246;9.100;2023-04-27T03:15:34;98851.63;;;7.67;76.18
14120;BME280;7138;49.246;9.100;2023-04-27T03:17:59;98846.53;;;7.68;76.98
14120;BME280;7138;49.246;9.100;2023-04-27T03:20:26;98843.13;;;7.71;76.99
14120;BME280;7138;49.246;9.100;2023-04-27T03:22:53;98848.31;;;7.76;77.48
14120;BME280;7138;49.246;9.100;2023-04-27T03:25:19;98843.19;;;7.79;77.42
14120;BME280;7138;49.246;9.100;2023-04-27T03:27:45;98839.81;;;7.83;77.79
14120;BME280;7138;49.246;9.100;2023-04-27T03:30:12;98841.59;;;7.87;77.76
14120;BME280;7138;49.246;9.100;2023-04-27T03:32:38;98844.25;;;7.93;78.33
14120;BME280;7138;49.246;9.100;2023-04-27T03:35:05;98846.00;;;7.97;78.53
14120;BME280;7138;49.246;9.100;2023-04-27T03:37:31;98846.03;;;8.00;77.86
14120;BME280;7138;49.246;9.100;2023-04-27T03:39:58;98837.50;;;8.04;78.18
14120;BME280;7138;49.246;9.100;2023-04-27T03:42:24;98840.13;;;8.07;78.32
14120;BME280;7138;49.246;9.100;2023-04-27T03:44:50;98847.03;;;8.11;78.34
14120;BME280;7138;49.246;9.100;2023-04-27T03:47:16;98841.06;;;8.13;77.94
14120;BME280;7138;49.246;9.100;2023-04-27T03:49:41;98835.94;;;8.16;78.95
14120;BME280;7138;49.246;9.100;2023-04-27T03:52:07;98836.84;;;8.21;78.41
14120;BME280;7138;49.246;9.100;2023-04-27T03:54:33;98848.91;;;8.27;78.27
14120;BME280;7138;49.246;9.100;2023-04-27T03:57:00;98837.84;;;8.30;78.27
14120;BME280;7138;49.246;9.100;2023-04-27T03:59:28;98842.16;;;8.32;76.87
14120;BME280;7138;49.246;9.100;2023-04-27T04:01:54;98839.56;;;8.34;76.85
14120;BME280;7138;49.246;9.100;2023-04-27T04:04:20;98837.91;;;8.36;77.60
14120;BME280;7138;49.246;9.100;2023-04-27T04:06:46;98842.22;;;8.38;76.92
14120;BME280;7138;49.246;9.100;2023-04-27T04:09:12;98838.78;;;8.42;77.22
14120;BME280;7138;49.246;9.100;2023-04-27T04:11:38;98831.94;;;8.43;77.13
14120;BME280;7138;49.246;9.100;2023-04-27T04:14:05;98837.09;;;8.43;77.49
14120;BME280;7138;49.246;9.100;2023-04-27T04:16:32;98835.34;;;8.40;77.06
14120;BME280;7138;49.246;9.100;2023-04-27T04:18:58;98845.72;;;8.45;77.49
14120;BME280;7138;49.246;9.100;2023-04-27T04:21:24;98839.72;;;8.47;76.62
14120;BME280;7138;49.246;9.100;2023-04-27T04:23:50;98844.00;;;8.48;76.34
14120;BME280;7138;49.246;9.100;2023-04-27T04:26:16;98844.03;;;8.51;75.62
14120;BME280;7138;49.246;9.100;2023-04-27T04:28:42;98846.66;;;8.53;75.82
14120;BME280;7138;49.246;9.100;2023-04-27T04:31:10;98850.09;;;8.55;75.64
14120;BME280;7138;49.246;9.100;2023-04-27T04:33:36;98847.56;;;8.56;76.02
14120;BME280;7138;49.246;9.100;2023-04-27T04:36:02;98839.78;;;8.55;77.74
14120;BME280;7138;49.246;9.100;2023-04-27T04:38:28;98844.97;;;8.56;77.75
14120;BME280;7138;49.246;9.100;2023-04-27T04:40:54;98841.53;;;8.56;78.38
14120;BME280;7138;49.246;9.100;2023-04-27T04:43:20;98841.56;;;8.60;78.69
14120;BME280;7138;49.246;9.100;2023-04-27T04:45:46;98845.91;;;8.64;78.69
14120;BME280;7138;49.246;9.100;2023-04-27T04:48:14;98847.66;;;8.68;77.89
14120;BME280;7138;49.246;9.100;2023-04-27T04:50:41;98841.66;;;8.71;77.78
14120;BME280;7138;49.246;9.100;2023-04-27T04:53:07;98844.25;;;8.72;78.61
14120;BME280;7138;49.246;9.100;2023-04-27T04:55:32;98858.84;;;8.70;78.02
14120;BME280;7138;49.246;9.100;2023-04-27T04:57:58;98857.13;;;8.71;77.88
14120;BME280;7138;49.246;9.100;2023-04-27T05:00:24;98859.66;;;8.66;78.60
14120;BME280;7138;49.246;9.100;2023-04-27T05:02:50;98865.66;;;8.64;79.78
14120;BME280;7138;49.246;9.100;2023-04-27T05:05:18;98865.66;;;8.62;80.44
14120;BME280;7138;49.246;9.100;2023-04-27T05:07:44;98863.06;;;8.62;80.70
14120;BME280;7138;49.246;9.100;2023-04-27T05:10:10;98865.69;;;8.65;81.20
14120;BME280;7138;49.246;9.100;2023-04-27T05:12:36;98869.13;;;8.66;80.75
14120;BME280;7138;49.246;9.100;2023-04-27T05:15:02;98870.84;;;8.68;80.59
14120;BME280;7138;49.246;9.100;2023-04-27T05:17:28;98870.88;;;8.71;80.29
14120;BME280;7138;49.246;9.100;2023-04-27T05:19:54;98868.28;;;8.70;80.46
14120;BME280;7138;49.246;9.100;2023-04-27T05:22:21;98876.00;;;8.70;80.42
14120;BME280;7138;49.246;9.100;2023-04-27T05:24:47;98874.34;;;8.72;80.72
14120;BME280;7138;49.246;9.100;2023-04-27T05:27:13;98873.50;;;8.76;82.35
14120;BME280;7138;49.246;9.100;2023-04-27T05:29:41;98873.53;;;8.77;82.35
14120;BME280;7138;49.246;9.100;2023-04-27T05:32:07;98878.69;;;8.82;82.24
14120;BME280;7138;49.246;9.100;2023-04-27T05:34:34;98877.06;;;8.92;82.50
14120;BME280;7138;49.246;9.100;2023-04-27T05:37:01;98861.66;;;8.98;82.20
14120;BME280;7138;49.246;9.100;2023-04-27T05:39:30;98864.28;;;9.04;82.22
14120;BME280;7138;49.246;9.100;2023-04-27T05:41:56;98869.50;;;9.10;81.56
14120;BME280;7138;49.246;9.100;2023-04-27T05:44:22;98866.09;;;9.15;80.33
14120;BME280;7138;49.246;9.100;2023-04-27T05:46:49;98871.28;;;9.20;79.63
14120;BME280;7138;49.246;9.100;2023-04-27T05:49:15;98864.41;;;9.22;79.67
14120;BME280;7138;49.246;9.100;2023-04-27T05:51:41;98865.28;;;9.21;78.96
14120;BME280;7138;49.246;9.100;2023-04-27T05:54:07;98862.69;;;9.18;78.64
14120;BME280;7138;49.246;9.100;2023-04-27T05:56:34;98884.25;;;9.29;78.42
14120;BME280;7138;49.246;9.100;2023-04-27T05:59:02;98889.47;;;9.35;78.75
14120;BME280;7138;49.246;9.100;2023-04-27T06:01:28;98885.22;;;9.42;79.05
14120;BME280;7138;49.246;9.100;2023-04-27T06:03:54;98893.00;;;9.48;79.54
14120;BME280;7138;49.246;9.100;2023-04-27T06:06:20;98896.50;;;9.54;80.45
14120;BME280;7138;49.246;9.100;2023-04-27T06:08:46;98899.97;;;9.64;79.99
14120;BME280;7138;49.246;9.100;2023-04-27T06:11:12;98894.84;;;9.70;78.28
14120;BME280;7138;49.246;9.100;2023-04-27T06:13:39;98894.03;;;9.75;77.35
14120;BME280;7138;49.246;9.100;2023-04-27T06:16:05;98889.75;;;9.77;76.97
14120;BME280;7138;49.246;9.100;2023-04-27T06:18:31;98900.06;;;9.77;76.13
14120;BME280;7138;49.246;9.100;2023-04-27T06:21:00;98894.06;;;9.83;75.94
14120;BME280;7138;49.246;9.100;2023-04-27T06:23:26;98893.22;;;9.85;75.78
14120;BME280;7138;49.246;9.100;2023-04-27T06:25:52;98899.28;;;9.91;76.08
14120;BME280;7138;49.246;9.100;2023-04-27T06:28:17;98898.47;;;10.02;76.70
14120;BME280;7138;49.246;9.100;2023-04-27T06:30:45;98901.97;;;10.09;76.11
14120;BME280;7138;49.246;9.100;2023-04-27T06:33:10;98904.56;;;10.13;75.79
14120;BME280;7138;49.246;9.100;2023-04-27T06:35:36;98898.56;;;10.17;75.75
14120;BME280;7138;49.246;9.100;2023-04-27T06:38:02;98908.94;;;10.28;75.96
14120;BME280;7138;49.246;9.100;2023-04-27T06:40:28;98906.38;;;10.37;75.80
14120;BME280;7138;49.246;9.100;2023-04-27T06:42:53;98919.34;;;10.49;75.45
14120;BME280;7138;49.246;9.100;2023-04-27T06:45:20;98919.38;;;10.55;74.62
14120;BME280;7138;49.246;9.100;2023-04-27T06:47:47;98918.56;;;10.64;74.46
14120;BME280;7138;49.246;9.100;2023-04-27T06:50:13;98917.69;;;10.69;74.89
14120;BME280;7138;49.246;9.100;2023-04-27T06:52:40;98911.69;;;10.78;74.15
14120;BME280;7138;49.246;9.100;2023-04-27T06:55:07;98916.84;;;10.88;73.52
14120;BME280;7138;49.246;9.100;2023-04-27T06:57:33;98926.38;;;10.97;72.61
14120;BME280;7138;49.246;9.100;2023-04-27T06:59:58;98919.47;;;11.04;72.74
14120;BME280;7138;49.246;9.100;2023-04-27T07:02:24;98913.44;;;11.12;73.12
14120;BME280;7138;49.246;9.100;2023-04-27T07:04:51;98920.34;;;11.18;72.34
14120;BME280;7138;49.246;9.100;2023-04-27T07:07:17;98911.69;;;11.22;71.50
14120;BME280;7138;49.246;9.100;2023-04-27T07:09:43;98915.16;;;11.28;71.29
14120;BME280;7138;49.246;9.100;2023-04-27T07:12:09;98897.94;;;11.30;72.25
14120;BME280;7138;49.246;9.100;2023-04-27T07:14:35;98919.47;;;11.50;71.65
14120;BME280;7138;49.246;9.100;2023-04-27T07:17:01;98916.84;;;11.58;70.65
14120;BME280;7138;49.246;9.100;2023-04-27T07:19:29;98924.66;;;11.76;71.75
14120;BME280;7138;49.246;9.100;2023-04-27T07:21:57;98929.81;;;11.91;71.36
14120;BME280;7138;49.246;9.100;2023-04-27T07:24:22;98924.59;;;12.03;71.27
14120;BME280;7138;49.246;9.100;2023-04-27T07:26:48;98931.44;;;12.20;71.69
14120;BME280;7138;49.246;9.100;2023-04-27T07:29:14;98921.03;;;12.32;71.56
14120;BME280;7138;49.246;9.100;2023-04-27T07:31:41;98929.63;;;12.46;70.48
14120;BME280;7138;49.246;9.100;2023-04-27T07:34:07;98923.50;;;12.57;70.75
14120;BME280;7138;49.246;9.100;2023-04-27T07:36:34;98919.97;;;12.69;69.84
14120;BME280;7138;49.246;9.100;2023-04-27T07:39:01;98918.19;;;12.82;69.87
14120;BME280;7138;49.246;9.100;2023-04-27T07:41:27;98912.09;;;12.86;69.77
14120;BME280;7138;49.246;9.100;2023-04-27T07:43:53;98917.22;;;12.98;70.95
14120;BME280;7138;49.246;9.100;2023-04-27T07:46:19;98917.13;;;13.11;70.65
14120;BME280;7138;49.246;9.100;2023-04-27T07:48:45;98907.50;;;13.26;69.70
14120;BME280;7138;49.246;9.100;2023-04-27T07:51:11;98916.91;;;13.42;71.33
14120;BME280;7138;49.246;9.100;2023-04-27T07:53:40;98915.91;;;13.58;71.43
14120;BME280;7138;49.246;9.100;2023-04-27T07:56:08;98916.53;;;13.81;69.91
14120;BME280;7138;49.246;9.100;2023-04-27T07:58:34;98914.63;;;13.95;67.92
14120;BME280;7138;49.246;9.100;2023-04-27T08:01:00;98917.09;;;14.09;68.52
14120;BME280;7138;49.246;9.100;2023-04-27T08:03:27;98918.72;;;14.17;67.74
14120;BME280;7138;49.246;9.100;2023-04-27T08:05:52;98919.41;;;14.36;68.20
14120;BME280;7138;49.246;9.100;2023-04-27T08:08:18;98919.28;;;14.45;67.33
14120;BME280;7138;49.246;9.100;2023-04-27T08:10:44;98920.88;;;14.58;67.72
14120;BME280;7138;49.246;9.100;2023-04-27T08:13:11;98912.81;;;14.76;68.13
14120;BME280;7138;49.246;9.100;2023-04-27T08:15:37;98912.53;;;14.95;66.61
14120;BME280;7138;49.246;9.100;2023-04-27T08:18:03;98904.50;;;15.08;65.87
14120;BME280;7138;49.246;9.100;2023-04-27T08:20:29;98904.25;;;15.25;68.14
14120;BME280;7138;49.246;9.100;2023-04-27T08:22:55;98906.66;;;15.37;65.68
14120;BME280;7138;49.246;9.100;2023-04-27T08:25:21;98903.84;;;15.51;66.01
14120;BME280;7138;49.246;9.100;2023-04-27T08:27:47;98907.09;;;15.65;66.21
14120;BME280;7138;49.246;9.100;2023-04-27T08:30:14;98893.03;;;15.72;65.51
14120;BME280;7138;49.246;9.100;2023-04-27T08:32:41;98902.41;;;15.82;65.33
14120;BME280;7138;49.246;9.100;2023-04-27T08:35:07;98904.97;;;15.85;64.06
14120;BME280;7138;49.246;9.100;2023-04-27T08:37:33;98897.84;;;15.93;65.94
14120;BME280;7138;49.246;9.100;2023-04-27T08:39:59;98900.16;;;16.10;65.70
14120;BME280;7138;49.246;9.100;2023-04-27T08:42:25;98904.25;;;16.21;65.19
14120;BME280;7138;49.246;9.100;2023-04-27T08:44:51;98907.56;;;16.29;64.73
14120;BME280;7138;49.246;9.100;2023-04-27T08:47:18;98898.41;;;16.52;64.16
14120;BME280;7138;49.246;9.100;2023-04-27T08:49:44;98898.25;;;16.61;64.06
14120;BME280;7138;49.246;9.100;2023-04-27T08:52:13;98898.03;;;16.70;63.66
14120;BME280;7138;49.246;9.100;2023-04-27T08:54:39;98899.44;;;16.84;65.19
14120;BME280;7138;49.246;9.100;2023-04-27T08:57:10;98902.84;;;16.88;63.12
14120;BME280;7138;49.246;9.100;2023-04-27T08:59:36;98892.06;;;17.03;66.68
14120;BME280;7138;49.246;9.100;2023-04-27T09:02:03;98895.66;;;16.99;61.86
14120;BME280;7138;49.246;9.100;2023-04-27T09:04:37;98889.38;;;17.06;61.60
14120;BME280;7138;49.246;9.100;2023-04-27T09:07:11;98896.81;;;17.23;62.86
14120;BME280;7138;49.246;9.100;2023-04-27T09:09:37;98893.53;;;17.50;64.53
14120;BME280;7138;49.246;9.100;2023-04-27T09:12:13;98891.13;;;17.76;63.11
14120;BME280;7138;49.246;9.100;2023-04-27T09:14:40;98897.34;;;18.03;63.91
14120;BME280;7138;49.246;9.100;2023-04-27T09:17:07;98898.53;;;18.24;60.85
14120;BME280;7138;49.246;9.100;2023-04-27T09:19:34;98899.69;;;18.44;61.73
14120;BME280;7138;49.246;9.100;2023-04-27T09:22:07;98895.78;;;18.59;59.94
14120;BME280;7138;49.246;9.100;2023-04-27T09:24:33;98895.44;;;18.70;60.44
14120;BME280;7138;49.246;9.100;2023-04-27T09:26:59;98897.69;;;18.82;59.14
14120;BME280;7138;49.246;9.100;2023-04-27T09:29:32;98895.47;;;18.97;58.46
14120;BME280;7138;49.246;9.100;2023-04-27T09:31:58;98893.41;;;19.07;58.20
14120;BME280;7138;49.246;9.100;2023-04-27T09:34:24;98898.56;;;19.10;57.36
14120;BME280;7138;49.246;9.100;2023-04-27T09:36:50;98898.19;;;19.22;58.42
14120;BME280;7138;49.246;9.100;2023-04-27T09:39:18;98887.66;;;19.24;57.28
14120;BME280;7138;49.246;9.100;2023-04-27T09:41:45;98894.47;;;19.29;56.63
14120;BME280;7138;49.246;9.100;2023-04-27T09:44:13;98892.44;;;19.37;57.85
14120;BME280;7138;49.246;9.100;2023-04-27T09:46:41;98888.56;;;19.49;58.63
14120;BME280;7138;49.246;9.100;2023-04-27T09:49:08;98886.59;;;19.55;60.03
14120;BME280;7138;49.246;9.100;2023-04-27T09:51:34;98890.22;;;19.78;58.01
14120;BME280;7138;49.246;9.100;2023-04-27T09:54:02;98876.56;;;19.93;56.82
14120;BME280;7138;49.246;9.100;2023-04-27T09:56:42;98882.69;;;20.16;53.50
14120;BME280;7138;49.246;9.100;2023-04-27T10:02:14;98870.13;;;20.26;53.07
14120;BME280;7138;49.246;9.100;2023-04-27T10:05:02;98873.81;;;20.44;52.12
14120;BME280;7138;49.246;9.100;2023-04-27T10:07:37;98871.03;;;20.48;53.07
14120;BME280;7138;49.246;9.100;2023-04-27T10:10:14;98878.56;;;20.57;53.74
14120;BME280;7138;49.246;9.100;2023-04-27T10:12:42;98883.41;;;20.68;53.70
14120;BME280;7138;49.246;9.100;2023-04-27T10:15:13;98880.84;;;20.66;52.45
14120;BME280;7138;49.246;9.100;2023-04-27T10:17:48;98883.94;;;20.54;52.61
14120;BME280;7138;49.246;9.100;2023-04-27T10:20:14;98876.06;;;20.54;54.72
14120;BME280;7138;49.246;9.100;2023-04-27T10:22:43;98880.84;;;20.66;53.67
14120;BME280;7138;49.246;9.100;2023-04-27T10:25:16;98878.25;;;20.88;54.09
14120;BME280;7138;49.246;9.100;2023-04-27T10:27:49;98872.38;;;21.03;53.06
14120;BME280;7138;49.246;9.100;2023-04-27T10:30:18;98883.84;;;21.24;54.54
14120;BME280;7138;49.246;9.100;2023-04-27T10:32:51;98873.19;;;21.27;51.87
14120;BME280;7138;49.246;9.100;2023-04-27T10:35:19;98883.72;;;21.27;49.32
14120;BME280;7138;49.246;9.100;2023-04-27T10:37:46;98878.47;;;21.27;52.03
14120;BME280;7138;49.246;9.100;2023-04-27T10:40:14;98883.75;;;21.47;52.93
14120;BME280;7138;49.246;9.100;2023-04-27T10:42:43;98870.31;;;21.53;52.66
14120;BME280;7138;49.246;9.100;2023-04-27T10:45:10;98869.81;;;21.65;52.06
14120;BME280;7138;49.246;9.100;2023-04-27T10:47:40;98869.03;;;21.84;52.03
14120;BME280;7138;49.246;9.100;2023-04-27T10:50:08;98859.13;;;21.90;50.84
14120;BME280;7138;49.246;9.100;2023-04-27T10:52:41;98877.00;;;22.02;54.14
14120;BME280;7138;49.246;9.100;2023-04-27T10:55:19;98871.88;;;21.99;52.38
14120;BME280;7138;49.246;9.100;2023-04-27T10:57:48;98868.97;;;22.05;52.62
14120;BME280;7138;49.246;9.100;2023-04-27T11:00:20;98871.41;;;22.10;52.39
14120;BME280;7138;49.246;9.100;2023-04-27T11:02:47;98865.28;;;22.09;51.49
14120;BME280;7138;49.246;9.100;2023-04-27T11:05:17;98863.47;;;22.30;52.76
14120;BME280;7138;49.246;9.100;2023-04-27T11:07:44;98859.13;;;22.48;52.50
14120;BME280;7138;49.246;9.100;2023-04-27T11:10:15;98856.63;;;22.63;51.09
14120;BME280;7138;49.246;9.100;2023-04-27T11:12:41;98849.41;;;22.68;50.90
14120;BME280;7138;49.246;9.100;2023-04-27T11:15:09;98860.88;;;22.67;52.72
14120;BME280;7138;49.246;9.100;2023-04-27T11:17:36;98850.19;;;22.70;51.98
14120;BME280;7138;49.246;9.100;2023-04-27T11:20:02;98850.78;;;22.57;49.97
14120;BME280;7138;49.246;9.100;2023-04-27T11:22:31;98848.69;;;22.46;54.79
14120;BME280;7138;49.246;9.100;2023-04-27T11:24:57;98818.16;;;22.03;49.43
14120;BME280;7138;49.246;9.100;2023-04-27T11:27:35;98850.16;;;22.33;53.86
14120;BME280;7138;49.246;9.100;2023-04-27T11:30:01;98846.94;;;22.45;52.95
14120;BME280;7138;49.246;9.100;2023-04-27T11:32:28;98849.59;;;22.64;51.67
14120;BME280;7138;49.246;9.100;2023-04-27T11:34:54;98845.84;;;22.69;51.02
14120;BME280;7138;49.246;9.100;2023-04-27T11:37:22;98846.84;;;22.85;53.64
14120;BME280;7138;49.246;9.100;2023-04-27T11:39:49;98849.50;;;23.03;51.82
14120;BME280;7138;49.246;9.100;2023-04-27T11:42:20;98840.44;;;23.08;51.57
14120;BME280;7138;49.246;9.100;2023-04-27T11:44:52;98837.63;;;23.11;50.04
14120;BME280;7138;49.246;9.100;2023-04-27T11:47:19;98842.22;;;23.08;50.66
14120;BME280;7138;49.246;9.100;2023-04-27T11:49:47;98833.59;;;23.04;49.99
14120;BME280;7138;49.246;9.100;2023-04-27T11:52:13;98844.66;;;22.94;49.72
14120;BME280;7138;49.246;9.100;2023-04-27T11:54:47;98839.47;;;22.55;50.30
14120;BME280;7138;49.246;9.100;2023-04-27T11:57:13;98846.94;;;22.45;51.35
14120;BME280;7138;49.246;9.100;2023-04-27T11:59:39;98843.69;;;22.40;50.11
14120;BME280;7138;49.246;9.100;2023-04-27T12:02:06;98842.38;;;22.30;48.19
14120;BME280;7138;49.246;9.100;2023-04-27T12:04:33;98841.09;;;22.20;49.88
14120;BME280;7138;49.246;9.100;2023-04-27T12:07:01;98831.34;;;22.22;50.85
14120;BME280;7138;49.246;9.100;2023-04-27T12:09:28;98825.94;;;22.25;50.26
14120;BME280;7138;49.246;9.100;2023-04-27T12:11:54;98828.97;;;22.34;52.11
14120;BME280;7138;49.246;9.100;2023-04-27T12:14:20;98823.38;;;22.42;52.02
14120;BME280;7138;49.246;9.100;2023-04-27T12:16:46;98828.69;;;22.59;50.36
14120;BME280;7138;49.246;9.100;2023-04-27T12:19:12;98824.59;;;22.72;49.00
14120;BME280;7138;49.246;9.100;2023-04-27T12:21:38;98825.88;;;22.82;49.41
14120;BME280;7138;49.246;9.100;2023-04-27T12:24:06;98822.22;;;22.85;46.72
14120;BME280;7138;49.246;9.100;2023-04-27T12:26:32;98818.25;;;22.76;47.51
14120;BME280;7138;49.246;9.100;2023-04-27T12:28:57;98821.97;;;22.72;48.41
14120;BME280;7138;49.246;9.100;2023-04-27T12:31:23;98817.03;;;22.65;47.89
14120;BME280;7138;49.246;9.100;2023-04-27T12:33:50;98810.66;;;22.70;48.98
14120;BME280;7138;49.246;9.100;2023-04-27T12:36:16;98803.28;;;22.77;48.52
14120;BME280;7138;49.246;9.100;2023-04-27T12:38:41;98804.34;;;22.92;50.45
14120;BME280;7138;49.246;9.100;2023-04-27T12:41:09;98801.88;;;23.06;48.26
14120;BME280;7138;49.246;9.100;2023-04-27T12:43:35;98799.06;;;23.26;49.74
14120;BME280;7138;49.246;9.100;2023-04-27T12:46:02;98796.22;;;23.30;48.96
14120;BME280;7138;49.246;9.100;2023-04-27T12:48:28;98801.16;;;23.19;46.81
14120;BME280;7138;49.246;9.100;2023-04-27T12:50:55;98791.56;;;23.18;48.14
14120;BME280;7138;49.246;9.100;2023-04-27T12:53:21;98796.13;;;23.15;46.48
14120;BME280;7138;49.246;9.100;2023-04-27T12:55:47;98793.50;;;23.15;48.30
14120;BME280;7138;49.246;9.100;2023-04-27T12:58:14;98794.09;;;23.20;49.00
14120;BME280;7138;49.246;9.100;2023-04-27T13:00:40;98789.78;;;23.19;48.28
14120;BME280;7138;49.246;9.100;2023-04-27T13:03:06;98792.72;;;23.13;46.18
14120;BME280;7138;49.246;9.100;2023-04-27T13:05:32;98786.25;;;23.01;47.60
14120;BME280;7138;49.246;9.100;2023-04-27T13:07:58;98785.66;;;22.77;47.49
14120;BME280;7138;49.246;9.100;2023-04-27T13:10:24;98785.19;;;22.69;47.98
14120;BME280;7138;49.246;9.100;2023-04-27T13:12:50;98793.72;;;22.56;49.32
14120;BME280;7138;49.246;9.100;2023-04-27T13:15:17;98790.25;;;22.55;50.03
14120;BME280;7138;49.246;9.100;2023-04-27T13:17:43;98788.81;;;22.48;48.13